Carlton, Washington
Current Conditions -  °F | °C
As of 1:53 PM on Monday 22 Dec 2014 (Local Time) from KOMK Reporting Station
Clear Clear  
Wind Chill: 45°   Ceiling: Unl
Heat Index: 45°   Visibility: 10mi
Dew Point: 31°   Wind: 0mph
Humidity: 58%   Direction: NA
Pressure: 30.25"   Gusts: NA
Location:  48.25°N, 120.12°W
Report Text: KOMK 222153Z AUTO 00000KT 10SM CLR 07/M01 A3025 RMK AO2 SLP255 T00721006
Loading
Personal Weather Stations






























Interactive Weather Map New forecast layout! Learn more

10-Day Weather Forecast

Advertisements
Track Severe Weather on mobile